createdAt,value
2017-10-24T07:09:56.675Z,46.20
2017-10-24T07:10:59.855Z,43.40
2017-10-24T07:12:03.025Z,43.20
2017-10-24T07:13:05.456Z,43.10
2017-10-24T07:14:07.855Z,43.80
2017-10-24T07:15:11.044Z,43.10
2017-10-24T07:16:14.210Z,42.80
2017-10-24T07:18:36.045Z,42.40
2017-10-24T07:19:39.361Z,42.20
2017-10-24T07:20:41.826Z,42.10
2017-10-24T07:21:44.265Z,42.50
2017-10-24T07:22:47.529Z,41.60
2017-10-24T07:23:49.943Z,41.60
2017-10-24T07:24:52.348Z,41.90
2017-10-24T07:25:54.773Z,41.30
2017-10-24T07:26:57.185Z,41.30
2017-10-24T07:28:00.397Z,40.90
2017-10-24T07:29:03.554Z,41.50
2017-10-24T07:30:06.743Z,41.20
2017-10-24T07:31:10.240Z,41.10
2017-10-24T07:32:12.659Z,41.20
2017-10-24T07:33:15.164Z,40.90
2017-10-24T07:34:17.592Z,41.20
2017-10-24T07:35:19.995Z,40.40
2017-10-24T07:36:22.753Z,41.10
2017-10-24T07:37:25.945Z,40.70
2017-10-24T07:38:29.159Z,40.70
2017-10-24T07:39:33.131Z,40.40
2017-10-24T07:41:11.294Z,40.30
2017-10-24T07:42:15.409Z,40.30
2017-10-24T07:43:19.291Z,40.40
2017-10-24T07:44:23.304Z,40.10
2017-10-24T07:45:27.181Z,40.50
2017-10-24T07:46:31.053Z,39.90
2017-10-24T07:47:35.685Z,40.20
2017-10-24T07:48:39.556Z,40.10
2017-10-24T07:49:44.273Z,39.60
2017-10-24T07:50:48.127Z,40.40
2017-10-24T07:51:52.007Z,39.50
2017-10-24T07:52:56.346Z,40.80
2017-10-24T07:54:00.218Z,40.90
2017-10-24T07:55:04.091Z,39.50
2017-10-24T07:56:07.979Z,40.60
2017-10-24T07:57:12.952Z,39.30
2017-10-24T07:58:17.984Z,39.40
2017-10-24T07:59:21.842Z,39.10
2017-10-24T08:00:25.741Z,39.10
2017-10-24T08:01:29.615Z,39.60
2017-10-24T08:02:34.246Z,39.10
2017-10-24T08:03:38.432Z,39.10
2017-10-24T08:04:43.075Z,39.30
2017-10-24T08:05:47.011Z,39.30
2017-10-24T08:06:50.914Z,39.80
2017-10-24T08:07:54.792Z,39.30
2017-10-24T08:08:58.687Z,40.40
2017-10-24T08:10:02.557Z,39.10
2017-10-24T08:11:06.441Z,39.70
2017-10-24T08:12:11.070Z,39.20
2017-10-24T08:13:14.992Z,39.20
2017-10-24T08:14:18.876Z,39.10
2017-10-24T08:15:22.747Z,39.00
2017-10-24T08:16:27.406Z,40.70
2017-10-24T08:17:31.270Z,40.70
2017-10-24T08:18:35.182Z,40.80
2017-10-24T08:19:39.074Z,41.20
2017-10-24T08:20:42.985Z,41.70
2017-10-24T08:21:46.874Z,41.30
2017-10-24T08:22:51.496Z,41.70
2017-10-24T08:23:55.359Z,41.70
2017-10-24T08:25:00.023Z,42.00
2017-10-24T08:26:03.892Z,42.00
2017-10-24T08:27:07.763Z,41.60
2017-10-24T08:28:12.434Z,42.10
2017-10-24T08:29:16.330Z,42.10
2017-10-24T08:30:20.249Z,43.10
2017-10-24T08:31:25.636Z,43.90
2017-10-24T15:42:31.210Z,38.90
2017-10-24T15:43:35.094Z,38.60
2017-10-24T15:44:38.971Z,38.90
2017-10-24T15:45:43.631Z,39.30
2017-10-24T15:46:47.504Z,39.30
2017-10-24T15:47:51.376Z,39.70
2017-10-24T15:48:56.029Z,39.10
2017-10-24T15:49:59.954Z,39.10
2017-10-24T15:51:03.842Z,39.20
2017-10-24T15:52:07.720Z,39.70
2017-10-24T15:53:11.619Z,40.20
2017-10-24T15:54:15.530Z,38.80
2017-10-24T15:55:19.460Z,41.30
2017-10-24T15:56:23.357Z,39.50
2017-10-24T15:57:27.243Z,39.30
2017-10-24T15:58:31.145Z,39.20
2017-10-24T15:59:35.152Z,39.40
2017-10-24T16:00:39.099Z,38.90
2017-10-24T16:01:43.013Z,39.40
2017-10-24T16:02:46.883Z,40.40
2017-10-24T16:03:50.773Z,39.00
2017-10-24T16:04:55.413Z,38.40
2017-10-24T16:05:59.284Z,38.30
2017-10-24T16:07:03.179Z,39.20
2017-10-24T16:08:07.051Z,39.70
2017-10-24T16:09:11.011Z,39.30
2017-10-24T16:10:14.888Z,39.50
2017-10-24T16:11:18.762Z,38.90
2017-10-24T16:12:23.423Z,38.50
2017-10-24T16:13:27.297Z,38.30
2017-10-24T16:14:31.154Z,37.90
2017-10-24T16:15:35.829Z,39.40
2017-10-24T16:16:39.720Z,38.60
2017-10-24T16:17:43.648Z,38.20
2017-10-24T16:18:47.620Z,37.60
2017-10-24T16:19:51.520Z,37.90
2017-10-24T16:20:55.407Z,37.80
2017-10-24T16:21:59.302Z,37.20
2017-10-24T16:23:03.447Z,37.30
2017-10-24T16:24:07.326Z,37.40
2017-10-24T16:25:11.206Z,39.00
2017-10-24T16:26:15.115Z,39.70
2017-10-24T16:27:19.003Z,37.10
2017-10-24T16:28:22.919Z,37.60
2017-10-24T16:29:26.819Z,37.80
2017-10-24T16:30:30.698Z,38.30
2017-10-24T16:31:34.597Z,39.00
2017-10-24T16:32:38.520Z,38.70
2017-10-24T16:33:42.403Z,38.90
2017-10-24T16:34:46.295Z,37.80
2017-10-24T16:35:50.172Z,38.10
2017-10-24T16:36:54.058Z,37.00
2017-10-24T16:37:58.686Z,38.10
2017-10-24T16:39:02.578Z,38.00
2017-10-24T16:40:06.439Z,38.60
2017-10-24T16:41:11.085Z,37.90
2017-10-24T16:42:14.995Z,37.00
2017-10-24T16:43:18.873Z,38.60
2017-10-24T16:44:23.120Z,38.70
2017-10-24T16:45:26.994Z,38.50
2017-10-24T16:46:30.862Z,38.10
2017-10-24T16:47:35.559Z,37.00
2017-10-24T16:48:39.437Z,37.00
2017-10-24T16:49:43.662Z,38.30
2017-10-24T16:50:47.540Z,39.10
2017-10-24T16:51:51.403Z,39.80
2017-10-24T16:52:55.295Z,39.80
2017-10-24T16:53:59.156Z,39.60
2017-10-24T16:55:03.432Z,38.00
2017-10-24T16:56:07.313Z,37.30
2017-10-24T16:57:11.243Z,37.00
2017-10-24T16:58:15.118Z,38.90
2017-10-24T16:59:19.029Z,37.00
2017-10-24T17:00:22.902Z,37.30
2017-10-24T17:01:26.807Z,37.90
2017-10-24T17:02:30.883Z,37.30
2017-10-24T17:03:34.785Z,37.40
2017-10-24T17:04:38.759Z,37.00
2017-10-24T17:05:42.640Z,37.20
2017-10-24T17:06:46.584Z,38.70
2017-10-24T17:07:51.199Z,36.90
2017-10-24T17:08:55.117Z,37.00
2017-10-24T17:09:59.015Z,37.00
2017-10-24T17:11:03.049Z,37.50
2017-10-24T17:12:06.917Z,37.10
2017-10-24T17:13:10.783Z,37.10
2017-10-24T17:14:14.669Z,37.20
2017-10-24T17:15:18.548Z,37.70
2017-10-24T17:16:23.229Z,37.00
2017-10-24T17:17:27.109Z,37.00
2017-10-24T17:18:30.988Z,38.50
2017-10-24T17:19:35.656Z,38.30
2017-10-24T17:20:39.521Z,38.30
2017-10-24T17:21:43.431Z,37.00
2017-10-24T17:22:47.304Z,37.60
2017-10-24T17:23:51.199Z,37.00
2017-10-24T17:24:55.066Z,37.30
2017-10-24T17:25:59.702Z,37.40
2017-10-24T17:27:03.608Z,37.30
2017-10-24T17:28:07.501Z,39.10
2017-10-24T17:29:11.435Z,37.50
2017-10-24T17:30:16.133Z,36.90
2017-10-24T17:31:20.104Z,36.90
2017-10-24T17:32:24.052Z,37.50
2017-10-24T17:33:27.953Z,37.00
2017-10-24T17:34:31.825Z,38.00
2017-10-24T17:35:35.750Z,38.20
2017-10-24T17:36:39.617Z,37.40
2017-10-24T17:37:43.515Z,37.10
2017-10-24T17:38:47.390Z,37.40
2017-10-24T17:39:51.275Z,37.30
2017-10-24T17:40:55.942Z,39.30
2017-10-24T17:41:59.804Z,39.30
2017-10-24T17:43:04.052Z,38.30
2017-10-24T17:44:07.938Z,37.60
2017-10-24T17:45:11.952Z,40.10
2017-10-24T17:46:15.821Z,37.00
2017-10-24T17:47:24.325Z,41.10
2017-10-24T17:48:30.359Z,34.50
2017-10-24T17:49:35.859Z,34.40
2017-10-24T17:50:39.722Z,34.30
2017-10-24T17:51:49.180Z,34.10
2017-10-24T17:52:54.043Z,34.30
2017-10-24T17:53:59.640Z,34.00
2017-10-24T17:55:03.541Z,34.00
2017-10-24T17:56:07.511Z,34.40
2017-10-24T17:57:11.406Z,34.70
2017-10-24T17:58:15.684Z,34.70
2017-10-24T17:59:19.601Z,34.80
2017-10-24T18:00:24.637Z,35.30
2017-10-24T18:01:29.378Z,34.90
2017-10-24T18:02:33.288Z,34.90
2017-10-24T18:03:37.184Z,35.10
2017-10-24T18:04:41.088Z,35.10
2017-10-24T18:05:45.732Z,35.60
2017-10-24T18:06:49.620Z,35.60
2017-10-24T18:07:54.270Z,35.80
2017-10-24T18:08:58.115Z,35.30
2017-10-24T18:10:02.775Z,35.80
2017-10-24T18:11:06.649Z,35.30
2017-10-24T18:12:10.527Z,35.30
2017-10-24T18:13:15.173Z,35.90
2017-10-24T18:14:19.072Z,35.80
2017-10-24T18:15:22.977Z,35.70
2017-10-24T18:16:26.855Z,35.80
2017-10-24T18:17:30.786Z,35.30
2017-10-24T18:18:34.700Z,35.30
2017-10-24T18:19:38.582Z,36.10
2017-10-24T18:20:42.812Z,35.70
2017-10-24T18:21:46.674Z,35.70
2017-10-24T18:22:50.576Z,35.80
2017-10-24T18:23:54.465Z,36.10
2017-10-24T18:24:58.374Z,36.20
2017-10-24T18:42:35.002Z,27.90
2017-10-24T18:43:40.401Z,27.90
2017-10-24T18:44:45.776Z,29.00
2017-10-24T18:45:52.156Z,29.10
2017-10-24T18:47:04.572Z,28.30
2017-10-24T18:48:10.984Z,28.30
2017-10-24T18:49:15.654Z,27.80
2017-10-24T18:50:22.297Z,27.60
2017-10-24T18:51:29.404Z,28.10
2017-10-24T18:52:34.442Z,28.60
2017-10-24T18:53:39.504Z,29.20
2017-10-24T18:54:46.862Z,26.90
2017-10-24T18:55:58.128Z,26.40
2017-10-24T18:57:07.925Z,25.10
2017-10-24T18:58:26.327Z,25.70
2017-10-24T18:59:31.034Z,27.60
2017-10-24T19:00:39.488Z,28.20
2017-10-24T19:01:45.130Z,28.50
2017-10-24T19:02:50.621Z,29.70
2017-10-24T19:03:56.190Z,30.90
2017-10-24T19:05:01.685Z,31.20
2017-10-24T19:06:08.134Z,32.40
2017-10-24T19:07:14.417Z,32.40
2017-10-24T19:08:20.389Z,33.20
2017-10-24T19:09:27.392Z,32.50
2017-10-24T19:10:33.532Z,34.00
2017-10-24T19:11:39.720Z,34.60
2017-10-24T19:12:44.261Z,34.60
2017-10-24T19:13:51.251Z,35.40
2017-10-24T19:14:58.348Z,34.00
2017-10-24T19:16:03.353Z,34.10
2017-10-24T19:17:10.470Z,33.70
2017-10-24T19:18:17.236Z,33.20
2017-10-24T19:19:24.401Z,33.00
2017-10-24T19:20:31.588Z,32.40
2017-10-24T19:21:37.846Z,32.40
2017-10-24T19:22:43.588Z,32.00
2017-10-24T19:23:50.600Z,31.00
2017-10-24T19:24:55.974Z,31.00
2017-10-24T19:26:02.032Z,31.00
2017-10-24T19:27:06.771Z,30.60
2017-10-24T19:28:13.096Z,30.90
2017-10-24T19:29:20.789Z,30.00
2017-10-24T19:30:26.044Z,30.00
2017-10-24T19:31:31.940Z,30.00
2017-10-24T19:32:38.864Z,30.10
2017-10-24T19:33:45.002Z,29.20
2017-10-24T19:34:51.465Z,29.10
2017-10-24T19:35:56.768Z,27.30
2017-10-24T19:37:02.072Z,27.30
2017-10-24T19:38:06.440Z,24.30
2017-10-24T19:39:12.623Z,23.70
2017-10-24T19:40:17.935Z,23.60
2017-10-24T19:41:23.353Z,22.60
2017-10-24T19:42:27.971Z,23.20
2017-10-24T19:43:32.581Z,24.80
2017-10-24T19:44:38.194Z,25.30
2017-10-24T19:45:44.765Z,25.10
2017-10-24T19:46:52.328Z,36.50
2017-10-24T19:48:07.746Z,48.60
2017-10-24T19:49:19.148Z,48.90
